Time;durP1;ratioP1;P1;durP2;ratioP2;P2;SDS_P1;SDS_P2;PMS_P1;PMS_P2;Temp;Humidity;BMP_temperature;BMP_pressure;BME280_temperature;BME280_humidity;BME280_pressure;Samples;Min_cycle;Max_cycle;Signal;HPM_P1;HPM_P2
2021/07/27 00:01:10;;;;;;;21.38;14.15;;;;;;;17.41;66.95;99676.41;5070243;28;20044;-56
2021/07/27 00:03:37;;;;;;;20.27;11.88;;;;;;;17.39;66.57;99671.34;5071586;28;20044;-57
2021/07/27 00:06:04;;;;;;;18.13;10.98;;;;;;;17.39;66.41;99670.56;5071797;28;20078;-57
2021/07/27 00:08:30;;;;;;;14.27;9.30;;;;;;;17.35;66.42;99681.00;5071853;28;20040;-57
2021/07/27 00:10:58;;;;;;;17.40;9.38;;;;;;;17.34;66.74;99673.25;5071788;28;20081;-57
2021/07/27 00:13:24;;;;;;;18.45;9.32;;;;;;;17.30;66.84;99673.00;5071766;28;20051;-57
2021/07/27 00:15:49;;;;;;;18.58;10.30;;;;;;;17.25;67.11;99667.66;5070309;28;20044;-57
2021/07/27 00:18:15;;;;;;;16.75;10.93;;;;;;;17.21;67.51;99675.44;5071269;28;20064;-57
2021/07/27 00:20:42;;;;;;;22.30;11.48;;;;;;;17.17;67.87;99665.53;5071489;28;20076;-57
2021/07/27 00:23:08;;;;;;;18.63;10.75;;;;;;;17.14;67.73;99666.88;5070055;28;20117;-57
2021/07/27 00:25:34;;;;;;;15.93;11.43;;;;;;;17.08;67.95;99670.66;5071421;28;20379;-57
2021/07/27 00:28:00;;;;;;;18.33;13.13;;;;;;;17.05;68.06;99667.72;5071342;28;20493;-57
2021/07/27 00:30:25;;;;;;;18.00;11.73;;;;;;;17.01;68.16;99673.63;5071422;28;20053;-55
2021/07/27 00:32:51;;;;;;;17.23;11.85;;;;;;;16.98;68.26;99665.34;5069941;28;20071;-57
2021/07/27 00:35:17;;;;;;;16.30;10.30;;;;;;;16.95;68.02;99668.56;5071570;28;20452;-55
2021/07/27 00:37:45;;;;;;;15.95;10.70;;;;;;;16.87;68.02;99658.41;5071103;28;20040;-56
2021/07/27 00:40:11;;;;;;;15.88;9.45;;;;;;;16.91;68.18;99668.31;5070053;28;20052;-57
2021/07/27 00:42:47;;;;;;;13.48;9.07;;;;;;;16.89;67.80;99667.00;5071497;28;20177;-55
2021/07/27 00:45:14;;;;;;;13.00;9.18;;;;;;;16.84;67.51;99661.63;5071233;28;20581;-59
2021/07/27 00:47:40;;;;;;;14.07;8.85;;;;;;;16.82;67.76;99669.94;5071054;28;20198;-57
2021/07/27 00:50:08;;;;;;;12.10;8.75;;;;;;;16.80;68.05;99664.06;5071182;28;20350;-56
2021/07/27 00:52:38;;;;;;;16.77;9.20;;;;;;;16.78;68.32;99666.19;5070965;28;20055;-57
2021/07/27 00:55:05;;;;;;;17.42;10.75;;;;;;;16.76;68.33;99662.97;5071309;28;20036;-58
2021/07/27 00:57:31;;;;;;;17.00;11.05;;;;;;;16.76;68.45;99658.44;5070948;28;20052;-57
2021/07/27 00:59:57;;;;;;;16.20;11.15;;;;;;;16.72;68.53;99654.66;5071331;28;20045;-57
2021/07/27 01:02:23;;;;;;;23.55;14.75;;;;;;;16.68;69.26;99658.19;5071450;28;20037;-56
2021/07/27 01:04:49;;;;;;;43.35;25.40;;;;;;;16.65;69.04;99656.00;5070982;28;20135;-58
2021/07/27 01:07:15;;;;;;;68.40;39.58;;;;;;;16.65;69.20;99656.84;5071373;28;20068;-57
2021/07/27 01:09:41;;;;;;;79.75;47.97;;;;;;;16.66;69.50;99654.97;5070947;28;20052;-58
2021/07/27 01:12:07;;;;;;;79.80;52.92;;;;;;;16.65;69.76;99654.16;5073249;28;20040;-58
2021/07/27 01:14:32;;;;;;;69.35;44.13;;;;;;;16.66;69.18;99660.31;5074786;28;20085;-58
2021/07/27 01:16:58;;;;;;;41.45;25.52;;;;;;;16.62;68.96;99657.38;5074694;28;20052;-57
2021/07/27 01:19:39;;;;;;;57.38;35.97;;;;;;;16.61;69.19;99657.63;5073321;28;20068;-58
2021/07/27 01:43:43;;;;;;;32.53;18.35;;;;;;;16.81;67.54;99660.31;5074424;28;20041;-58
2021/07/27 01:46:12;;;;;;;24.98;15.70;;;;;;;17.03;67.01;99652.75;5074367;28;20110;-58
2021/07/27 01:48:38;;;;;;;26.70;14.05;;;;;;;17.23;66.98;99651.84;5074081;28;20097;-57
2021/07/27 01:51:03;;;;;;;17.50;12.20;;;;;;;17.46;65.82;99646.91;5074230;28;20048;-56
2021/07/27 01:54:01;;;;;;;19.73;11.88;;;;;;;17.67;64.68;99651.09;5072864;28;20044;-57
2021/07/27 01:56:24;;;;;;;20.23;11.80;;;;;;;18.01;64.23;99665.66;5074054;28;20066;-57
2021/07/27 01:58:50;;;;;;;19.55;12.18;;;;;;;18.26;63.08;99656.59;5072910;28;20051;-57
2021/07/27 02:01:23;;;;;;;29.25;16.50;;;;;;;18.52;61.93;99654.47;5074277;28;20070;-56
2021/07/27 02:03:48;;;;;;;32.60;22.05;;;;;;;18.81;60.67;99663.34;5073928;28;20037;-57
2021/07/27 02:06:15;;;;;;;23.50;15.13;;;;;;;19.09;59.10;99658.22;5072708;28;20049;-57
2021/07/27 02:08:41;;;;;;;16.95;11.20;;;;;;;19.37;58.02;99666.47;5055970;28;20740;-56
2021/07/27 02:11:11;;;;;;;18.08;10.00;;;;;;;19.56;57.30;99667.28;5072479;28;20064;-56
2021/07/27 02:13:48;;;;;;;18.40;10.75;;;;;;;19.77;57.40;99667.03;5073953;28;20128;-56
2021/07/27 02:16:14;;;;;;;13.45;8.65;;;;;;;20.00;56.15;99662.63;5073655;28;20434;-56
2021/07/27 02:18:40;;;;;;;12.32;9.05;;;;;;;20.17;55.08;99662.91;5073816;28;20048;-55
2021/07/27 02:21:06;;;;;;;12.85;9.60;;;;;;;20.44;54.93;99656.78;5073890;28;20048;-56
2021/07/27 02:23:31;;;;;;;12.90;10.05;;;;;;;20.77;54.67;99662.19;5073069;28;20447;-58
2021/07/27 02:25:58;;;;;;;12.48;10.73;;;;;;;21.05;54.39;99657.56;5072168;28;20413;-54
2021/07/27 02:28:24;;;;;;;12.23;9.68;;;;;;;21.38;53.18;99660.16;5022514;28;20131;-56
2021/07/27 02:30:54;;;;;;;16.50;9.98;;;;;;;21.58;52.35;99659.72;5072257;28;20127;-57
2021/07/27 02:33:20;;;;;;;18.63;11.10;;;;;;;21.81;52.57;99662.47;5073393;28;20051;-57
2021/07/27 02:35:46;;;;;;;15.73;10.40;;;;;;;21.91;51.88;99664.91;5073353;28;20040;-57
2021/07/27 02:38:12;;;;;;;17.73;10.82;;;;;;;22.08;51.64;99662.34;5072152;28;20044;-58
2021/07/27 02:40:37;;;;;;;17.80;10.07;;;;;;;22.15;50.53;99667.34;5073391;28;20059;-56
2021/07/27 02:43:04;;;;;;;12.60;9.10;;;;;;;22.37;49.85;99659.22;5073027;28;20047;-56
2021/07/27 02:45:31;;;;;;;12.07;8.68;;;;;;;22.55;49.14;99659.31;5072041;28;20045;-56
2021/07/27 02:47:57;;;;;;;12.48;7.82;;;;;;;22.63;48.83;99661.28;5071806;28;20048;-57
2021/07/27 02:50:27;;;;;;;10.02;7.40;;;;;;;22.70;48.27;99666.22;5073254;28;20045;-57
2021/07/27 02:52:54;;;;;;;11.65;7.80;;;;;;;22.61;49.09;99672.38;5072858;28;20483;-56
2021/07/27 02:55:19;;;;;;;10.93;9.38;;;;;;;22.77;49.32;99663.88;5073133;28;20045;-56
2021/07/27 02:57:48;;;;;;;14.40;9.40;;;;;;;23.03;48.66;99670.22;5072867;28;20056;-57
2021/07/27 03:00:15;;;;;;;15.23;9.48;;;;;;;23.23;47.98;99662.63;5073024;28;20040;-57
2021/07/27 03:02:45;;;;;;;13.20;9.32;;;;;;;23.25;47.39;99660.41;5071287;28;20479;-57
2021/07/27 03:05:12;;;;;;;14.38;8.80;;;;;;;23.42;47.40;99670.47;5072930;28;20445;-57
2021/07/27 03:10:18;;;;;;;16.42;8.90;;;;;;;23.72;47.37;99674.97;5072805;28;20040;-57
2021/07/27 03:12:52;;;;;;;19.95;9.15;;;;;;;23.94;46.96;99673.22;5072710;28;20131;-57
2021/07/27 03:15:25;;;;;;;14.05;8.60;;;;;;;24.16;46.40;99678.47;5071196;28;20040;-57
2021/07/27 03:18:00;;;;;;;18.40;11.75;;;;;;;24.16;45.58;99683.09;5071091;28;20066;-55
2021/07/27 03:20:31;;;;;;;17.95;11.27;;;;;;;24.36;45.51;99674.28;5071366;28;20143;-57
2021/07/27 03:22:57;;;;;;;22.20;9.93;;;;;;;24.62;45.48;99676.16;5071056;28;20040;-57
2021/07/27 03:25:23;;;;;;;19.05;9.35;;;;;;;24.85;44.83;99671.28;5072375;28;20075;-57
2021/07/27 03:27:50;;;;;;;14.10;8.82;;;;;;;25.09;44.13;99670.69;5072024;28;20476;-56
2021/07/27 03:30:20;;;;;;;17.52;9.65;;;;;;;25.18;43.42;99673.38;5072335;28;20036;-56
2021/07/27 03:32:47;;;;;;;17.98;10.43;;;;;;;25.26;43.54;99669.81;5072056;28;20076;-57
2021/07/27 03:35:13;;;;;;;14.77;10.35;;;;;;;25.30;43.22;99674.28;5071084;28;20082;-56
2021/07/27 03:37:38;;;;;;;16.27;8.40;;;;;;;25.28;42.62;99662.16;5071885;28;20144;-57
2021/07/27 03:40:05;;;;;;;10.75;7.60;;;;;;;25.47;42.58;99662.53;5071926;28;20051;-57
2021/07/27 03:42:31;;;;;;;13.43;8.18;;;;;;;25.54;42.90;99664.72;5070591;28;20494;-58
2021/07/27 03:44:57;;;;;;;13.50;7.70;;;;;;;25.64;42.99;99664.28;5072082;28;20085;-59
2021/07/27 03:47:24;;;;;;;15.98;7.90;;;;;;;25.77;43.00;99663.25;5072179;28;20044;-56
2021/07/27 03:49:50;;;;;;;13.85;8.25;;;;;;;25.84;42.88;99662.72;5072007;28;20534;-59
2021/07/27 03:52:16;;;;;;;14.13;7.97;;;;;;;25.84;43.21;99668.16;5072121;28;20425;-57
2021/07/27 03:54:42;;;;;;;12.20;7.65;;;;;;;25.83;43.18;99670.09;5072009;28;20047;-58
2021/07/27 03:57:08;;;;;;;14.63;8.73;;;;;;;25.85;43.54;99653.44;5072048;28;20493;-57
2021/07/27 03:59:34;;;;;;;15.57;9.00;;;;;;;25.96;43.08;99662.78;5070360;28;20048;-58
2021/07/27 04:02:04;;;;;;;14.88;8.60;;;;;;;25.99;43.28;99661.31;5071976;28;20189;-57
2021/07/27 04:04:34;;;;;;;18.13;9.23;;;;;;;25.99;43.31;99655.91;5070787;28;20131;-57
2021/07/27 04:07:00;;;;;;;17.90;11.05;;;;;;;26.09;43.17;99657.38;5071888;28;20129;-56
2021/07/27 04:09:27;;;;;;;18.70;10.60;;;;;;;26.30;42.88;99658.16;5053544;28;20107;-58
2021/07/27 04:11:53;;;;;;;14.68;9.50;;;;;;;26.47;42.72;99657.16;5071786;28;20192;-55
2021/07/27 04:14:18;;;;;;;18.38;9.57;;;;;;;26.61;42.88;99654.16;5071435;28;20045;-58
2021/07/27 04:16:44;;;;;;;14.52;9.45;;;;;;;26.79;42.16;99660.16;5069888;28;20064;-56
2021/07/27 04:19:10;;;;;;;20.67;9.55;;;;;;;27.03;41.90;99656.66;5053628;28;20048;-58
2021/07/27 04:21:36;;;;;;;20.65;10.02;;;;;;;27.15;41.20;99660.22;5071692;28;20131;-57
2021/07/27 04:24:02;;;;;;;16.98;9.43;;;;;;;27.28;41.34;99660.97;5071555;28;20042;-58
2021/07/27 04:26:28;;;;;;;15.18;9.57;;;;;;;27.42;40.77;99657.13;5071633;28;20135;-56
2021/07/27 04:28:55;;;;;;;18.77;9.20;;;;;;;27.49;41.07;99651.88;5071238;28;20067;-57
2021/07/27 04:31:21;;;;;;;17.38;9.57;;;;;;;27.63;40.88;99655.00;5071403;28;20482;-56
2021/07/27 04:33:47;;;;;;;15.85;9.13;;;;;;;27.63;41.10;99646.84;5071153;28;20040;-55
2021/07/27 04:36:13;;;;;;;18.13;9.23;;;;;;;27.78;40.88;99648.84;5071349;28;20127;-58
2021/07/27 04:38:39;;;;;;;19.05;9.73;;;;;;;27.93;40.88;99641.06;5071004;28;20036;-58
2021/07/27 04:41:05;;;;;;;18.95;10.18;;;;;;;27.97;39.92;99650.94;5069687;28;20456;-57
2021/07/27 04:43:31;;;;;;;18.60;10.40;;;;;;;28.10;39.90;99639.97;5071044;28;20044;-58
2021/07/27 04:46:01;;;;;;;17.00;9.20;;;;;;;28.26;39.91;99648.97;5071485;28;20040;-57
2021/07/27 04:48:27;;;;;;;13.35;8.25;;;;;;;28.33;39.06;99643.72;5057302;28;20093;-57
2021/07/27 04:50:53;;;;;;;19.23;9.20;;;;;;;28.22;39.57;99640.69;5075259;28;20049;-57
2021/07/27 04:53:23;;;;;;;18.50;8.25;;;;;;;28.44;39.21;99639.34;5073990;28;20460;-59
2021/07/27 04:55:49;;;;;;;13.18;7.85;;;;;;;28.64;37.56;99626.59;5075277;28;20044;-57
2021/07/27 04:58:16;;;;;;;16.83;7.47;;;;;;;28.82;36.73;99629.72;5074879;28;20627;-58
2021/07/27 05:00:41;;;;;;;15.48;7.32;;;;;;;29.02;36.64;99630.63;5074939;28;20082;-57
2021/07/27 05:03:07;;;;;;;14.43;6.38;;;;;;;29.10;34.42;99629.63;5074716;28;20080;-57
2021/07/27 05:05:33;;;;;;;9.07;5.07;;;;;;;28.91;34.63;99627.59;5073768;28;20131;-57
2021/07/27 05:07:59;;;;;;;10.98;5.55;;;;;;;28.68;34.91;99624.75;5074759;28;20059;-56
2021/07/27 05:10:26;;;;;;;8.45;5.18;;;;;;;28.48;36.25;99628.53;5074836;28;20371;-58
2021/07/27 05:12:51;;;;;;;10.40;5.53;;;;;;;28.26;35.99;99633.41;5074823;28;20421;-56
2021/07/27 05:15:18;;;;;;;11.45;5.80;;;;;;;28.15;35.52;99632.34;5056823;28;20044;-57
2021/07/27 05:17:44;;;;;;;10.18;4.90;;;;;;;28.05;35.32;99630.13;5074602;28;20064;-58
2021/07/27 05:20:11;;;;;;;7.38;4.72;;;;;;;27.89;36.27;99635.53;5074765;28;20328;-57
2021/07/27 05:22:37;;;;;;;8.93;5.13;;;;;;;27.55;36.40;99623.25;5072898;28;20113;-57
2021/07/27 05:25:03;;;;;;;11.30;5.25;;;;;;;27.30;37.60;99630.72;5073203;28;20040;-57
2021/07/27 05:27:32;;;;;;;9.80;5.47;;;;;;;27.12;39.03;99630.94;5074376;28;20051;-58
2021/07/27 05:29:58;;;;;;;9.15;5.63;;;;;;;26.93;39.70;99617.91;5074786;28;20049;-58
2021/07/27 05:32:24;;;;;;;14.20;5.45;;;;;;;26.73;39.63;99621.53;5073297;28;20371;-58
2021/07/27 05:34:50;;;;;;;10.95;4.78;;;;;;;26.69;39.03;99626.06;5056386;28;20040;-59
2021/07/27 05:37:17;;;;;;;9.57;4.18;;;;;;;26.59;38.27;99623.78;5074598;28;20589;-58
2021/07/27 05:39:43;;;;;;;7.18;3.42;;;;;;;26.39;36.71;99612.66;5073737;28;20052;-60
2021/07/27 05:42:09;;;;;;;6.15;3.75;;;;;;;26.37;37.20;99628.50;5055463;28;20041;-59
2021/07/27 05:44:35;;;;;;;4.50;3.38;;;;;;;26.21;36.99;99624.84;5038712;28;20040;-60
2021/07/27 05:47:00;;;;;;;5.60;3.80;;;;;;;25.95;38.32;99630.53;5072099;28;20060;-58
2021/07/27 05:49:27;;;;;;;8.60;4.00;;;;;;;25.87;38.90;99620.53;5072299;28;20041;-60
2021/07/27 05:51:54;;;;;;;4.03;3.40;;;;;;;25.77;37.66;99621.72;5073718;28;20059;-59
2021/07/27 05:54:20;;;;;;;8.25;3.20;;;;;;;25.71;38.92;99618.44;5073424;28;20509;-59
2021/07/27 05:56:49;;;;;;;5.15;2.92;;;;;;;25.62;38.43;99617.72;5072131;28;20110;-58
2021/07/27 05:59:16;;;;;;;4.80;2.83;;;;;;;25.47;38.70;99621.81;5072956;28;20218;-58
2021/07/27 06:01:42;;;;;;;6.55;2.80;;;;;;;25.49;36.15;99619.53;5074017;28;20478;-57
2021/07/27 06:04:08;;;;;;;5.55;2.83;;;;;;;25.50;37.32;99613.00;5073691;28;20090;-59
2021/07/27 06:06:34;;;;;;;4.55;2.92;;;;;;;25.32;37.68;99593.31;5073889;28;20045;-59
2021/07/27 06:09:02;;;;;;;3.28;2.50;;;;;;;25.57;37.76;99624.13;5073713;28;20037;-59
2021/07/27 06:11:28;;;;;;;5.53;2.67;;;;;;;25.69;36.69;99619.88;5072071;28;20045;-57
2021/07/27 06:13:53;;;;;;;3.05;2.38;;;;;;;25.69;35.10;99620.66;5073402;28;20043;-57
2021/07/27 06:16:19;;;;;;;4.13;2.60;;;;;;;25.73;34.85;99620.78;5073010;28;20107;-59
2021/07/27 06:18:45;;;;;;;2.53;2.20;;;;;;;25.63;34.80;99618.50;5073097;28;20506;-57
2021/07/27 06:21:11;;;;;;;5.00;2.80;;;;;;;25.67;35.69;99616.69;5064323;28;20037;-58
2021/07/27 06:23:37;;;;;;;4.50;2.30;;;;;;;25.75;35.44;99615.84;5038082;28;20041;-59
2021/07/27 06:26:04;;;;;;;3.40;2.33;;;;;;;25.76;35.27;99620.13;5033518;28;20426;-57
2021/07/27 06:28:30;;;;;;;2.70;2.10;;;;;;;25.76;34.36;99622.84;5049935;28;20049;-56
2021/07/27 06:30:56;;;;;;;3.67;2.40;;;;;;;25.79;33.23;99614.81;5051221;28;20041;-57
2021/07/27 06:33:22;;;;;;;3.20;2.40;;;;;;;25.75;34.49;99624.75;5052531;28;20045;-59
2021/07/27 06:35:57;;;;;;;3.30;2.42;;;;;;;25.82;34.59;99618.81;5049780;28;20403;-59
2021/07/27 06:38:24;;;;;;;3.08;2.40;;;;;;;25.86;33.58;99625.19;5046464;28;20048;-57
2021/07/27 06:40:50;;;;;;;2.25;1.88;;;;;;;25.85;32.08;99620.06;5051264;28;20075;-58
2021/07/27 06:43:16;;;;;;;2.53;2.03;;;;;;;25.90;31.96;99623.38;5050130;28;20136;-58
2021/07/27 06:45:43;;;;;;;4.22;2.50;;;;;;;25.96;32.18;99623.97;5050586;28;20495;-59
2021/07/27 06:48:11;;;;;;;3.15;2.08;;;;;;;25.91;32.68;99616.03;5049494;28;20450;-59
2021/07/27 06:50:37;;;;;;;3.22;2.28;;;;;;;25.94;32.71;99624.31;5051034;28;20060;-59
2021/07/27 06:53:03;;;;;;;2.25;1.80;;;;;;;25.89;32.73;99623.72;5049898;28;20243;-59
2021/07/27 06:55:29;;;;;;;3.00;1.80;;;;;;;25.94;32.66;99620.78;5051151;28;20064;-59
2021/07/27 06:57:54;;;;;;;2.53;2.17;;;;;;;25.94;33.53;99628.94;5049969;28;20037;-59
2021/07/27 07:00:20;;;;;;;2.70;2.00;;;;;;;26.01;33.36;99619.13;5049435;28;20553;-60
2021/07/27 07:02:46;;;;;;;3.22;2.25;;;;;;;26.01;32.60;99619.13;5048412;28;20075;-58
2021/07/27 07:05:12;;;;;;;2.55;2.03;;;;;;;26.06;33.58;99615.41;5032154;28;20037;-58
2021/07/27 07:07:39;;;;;;;3.15;1.98;;;;;;;26.10;32.47;99618.25;5048539;28;20071;-59
2021/07/27 07:10:06;;;;;;;4.38;2.28;;;;;;;26.12;32.77;99613.25;5050938;28;20037;-57
2021/07/27 07:12:31;;;;;;;3.95;2.40;;;;;;;26.14;33.29;99614.50;5049259;28;20052;-57
2021/07/27 07:14:57;;;;;;;2.70;2.47;;;;;;;26.16;32.86;99614.19;5047685;28;20041;-58
2021/07/27 07:17:24;;;;;;;3.25;2.55;;;;;;;26.24;33.17;99616.03;5032564;28;20063;-58
2021/07/27 07:19:50;;;;;;;4.60;2.50;;;;;;;26.14;33.19;99611.00;5050373;28;20162;-57
2021/07/27 07:22:18;;;;;;;3.50;2.45;;;;;;;26.06;33.34;99615.41;5049320;28;20045;-60
2021/07/27 07:24:45;;;;;;;4.95;2.30;;;;;;;26.06;33.15;99612.69;5050750;28;20037;-58
2021/07/27 07:27:11;;;;;;;6.57;2.53;;;;;;;26.04;33.52;99607.59;5049541;28;20583;-58
2021/07/27 07:29:37;;;;;;;3.55;2.67;;;;;;;26.06;33.41;99612.69;5050458;28;20044;-59
2021/07/27 07:32:03;;;;;;;3.08;2.65;;;;;;;25.94;33.96;99602.59;5049762;28;20080;-58
2021/07/27 07:34:28;;;;;;;3.42;2.50;;;;;;;26.07;33.42;99605.34;5049844;28;20067;-59
2021/07/27 07:36:54;;;;;;;3.95;2.97;;;;;;;26.19;33.66;99611.59;5048916;28;20501;-58
2021/07/27 07:39:20;;;;;;;4.45;2.40;;;;;;;26.18;33.39;99598.34;5032433;28;20049;-60
2021/07/27 07:41:46;;;;;;;3.53;2.30;;;;;;;26.21;33.25;99605.84;5047912;28;20057;-59
2021/07/27 07:44:11;;;;;;;3.65;2.45;;;;;;;26.15;33.69;99588.94;5047878;28;20044;-60
2021/07/27 07:46:37;;;;;;;4.72;2.60;;;;;;;26.13;33.38;99591.19;5032791;28;20041;-57
2021/07/27 07:49:03;;;;;;;4.15;2.53;;;;;;;26.11;34.23;99601.59;5050038;28;20064;-58
2021/07/27 07:51:29;;;;;;;4.38;2.50;;;;;;;26.17;34.20;99599.47;5048538;28;20107;-59
2021/07/27 07:53:54;;;;;;;2.92;2.35;;;;;;;26.15;33.24;99604.44;5048440;28;20087;-59
2021/07/27 07:56:20;;;;;;;2.58;2.38;;;;;;;26.18;33.51;99606.50;5047984;28;20053;-58
2021/07/27 07:58:47;;;;;;;6.05;2.55;;;;;;;26.25;33.39;99602.09;5048591;28;20044;-58
2021/07/27 08:01:13;;;;;;;3.30;2.65;;;;;;;26.29;32.88;99599.47;5050156;28;20052;-57
2021/07/27 08:03:38;;;;;;;3.08;2.50;;;;;;;26.26;33.13;99600.94;5047711;28;20226;-60
2021/07/27 08:06:05;;;;;;;4.45;2.60;;;;;;;26.32;33.24;99596.09;5049471;28;20045;-58
2021/07/27 08:08:31;;;;;;;2.88;2.40;;;;;;;26.41;32.89;99596.78;5049585;28;20049;-59
2021/07/27 08:10:57;;;;;;;5.28;2.47;;;;;;;26.44;32.63;99598.84;5050857;28;20037;-60
2021/07/27 08:13:23;;;;;;;3.03;2.60;;;;;;;26.39;32.42;99598.28;5049612;28;20495;-59
2021/07/27 08:15:50;;;;;;;4.07;2.55;;;;;;;26.35;32.33;99594.63;5016744;28;20049;-59
2021/07/27 08:18:15;;;;;;;3.03;2.35;;;;;;;26.28;32.29;99590.53;5050536;28;20064;-59
2021/07/27 08:20:41;;;;;;;3.75;2.50;;;;;;;26.25;32.09;99590.44;5050067;28;20566;-58
2021/07/27 08:23:07;;;;;;;4.93;3.00;;;;;;;26.31;32.60;99594.50;5051208;28;20086;-58
2021/07/27 08:25:33;;;;;;;3.58;2.80;;;;;;;26.39;31.97;99593.63;5049657;28;20051;-58
2021/07/27 08:27:58;;;;;;;3.15;2.40;;;;;;;26.34;32.86;99585.69;5049305;28;20087;-58
2021/07/27 08:30:25;;;;;;;3.92;2.70;;;;;;;26.39;32.88;99584.69;5050643;28;20076;-59
2021/07/27 08:32:52;;;;;;;3.97;2.42;;;;;;;26.45;33.10;99581.41;5050600;28;20502;-60
2021/07/27 08:35:19;;;;;;;4.28;2.75;;;;;;;26.54;32.36;99583.25;5032896;28;20041;-59
2021/07/27 08:37:45;;;;;;;5.45;2.88;;;;;;;26.56;32.48;99580.97;5050833;28;20098;-58
2021/07/27 08:40:13;;;;;;;21.85;3.67;;;;;;;26.59;32.29;99583.00;5032600;28;20110;-59
2021/07/27 08:42:41;;;;;;;7.68;2.80;;;;;;;26.67;32.14;99580.16;5049204;28;20496;-58
2021/07/27 08:45:07;;;;;;;8.18;3.00;;;;;;;26.73;31.86;99578.81;5049111;28;20098;-59
2021/07/27 08:47:33;;;;;;;9.73;2.85;;;;;;;26.73;32.49;99584.25;5050309;28;20075;-59
2021/07/27 08:50:05;;;;;;;2.90;2.60;;;;;;;26.71;32.10;99581.09;5050469;28;20033;-59
2021/07/27 08:52:31;;;;;;;3.78;2.78;;;;;;;26.65;32.25;99581.66;5050676;28;20064;-58
2021/07/27 08:54:57;;;;;;;4.40;2.78;;;;;;;26.64;32.83;99578.13;5050510;28;20037;-59
2021/07/27 08:57:23;;;;;;;3.53;2.78;;;;;;;26.63;32.68;99579.28;5050759;28;20045;-58
2021/07/27 08:59:48;;;;;;;4.80;2.95;;;;;;;26.52;32.45;99580.06;5049325;28;20095;-58
2021/07/27 09:02:25;;;;;;;3.30;2.80;;;;;;;26.55;32.29;99574.75;5050674;28;20170;-59
2021/07/27 09:04:51;;;;;;;5.38;2.70;;;;;;;26.56;32.74;99584.50;5050466;28;20041;-58
2021/07/27 09:07:23;;;;;;;4.10;2.95;;;;;;;26.59;32.83;99574.84;5050800;28;20075;-58
2021/07/27 09:09:49;;;;;;;4.88;3.03;;;;;;;26.63;32.55;99573.06;5032556;28;20098;-58
2021/07/27 09:12:19;;;;;;;3.25;2.92;;;;;;;26.69;33.28;99574.41;5049209;28;20049;-57
2021/07/27 09:14:45;;;;;;;;;;;;;;;26.75;31.64;99573.03;5050669;28;20044;-58
2021/07/27 09:17:11;;;;;;;5.00;3.03;;;;;;;26.70;32.14;99576.78;5048928;28;19931;-58
2021/07/27 09:19:40;;;;;;;4.10;3.05;;;;;;;26.70;31.92;99576.78;5015977;28;20427;-59
2021/07/27 09:22:06;;;;;;;;;;;;;;;26.73;31.65;99575.31;5049649;28;20456;-58
2021/07/27 09:24:33;;;;;;;6.00;3.05;;;;;;;26.69;31.67;99575.19;5049101;28;19970;-59
2021/07/27 09:27:13;;;;;;;3.47;2.80;;;;;;;26.73;31.75;99569.88;5049179;28;20049;-58
2021/07/27 09:29:45;;;;;;;7.45;3.00;;;;;;;26.83;31.71;99574.06;5049079;28;20127;-60
2021/07/27 09:32:19;;;;;;;3.97;2.70;;;;;;;26.86;31.62;99562.50;5052249;28;20049;-59
2021/07/27 09:34:46;;;;;;;3.28;2.97;;;;;;;26.82;32.06;99565.09;5053785;28;20456;-59
2021/07/27 09:37:12;;;;;;;5.85;3.25;;;;;;;26.70;32.00;99562.38;5054051;28;20136;-61
2021/07/27 09:39:38;;;;;;;5.65;2.70;;;;;;;26.68;32.16;99561.97;5053676;28;20431;-59
2021/07/27 09:42:07;;;;;;;3.38;3.00;;;;;;;26.63;32.46;99554.81;5054019;28;20045;-60
2021/07/27 09:44:34;;;;;;;3.40;2.80;;;;;;;26.67;31.98;99550.25;5019290;28;20041;-61
2021/07/27 09:47:01;;;;;;;6.05;3.35;;;;;;;26.72;32.31;99541.88;5035630;28;20461;-59
2021/07/27 09:49:27;;;;;;;4.75;2.75;;;;;;;26.72;32.36;99541.88;5052307;28;20049;-60
2021/07/27 09:51:54;;;;;;;3.88;3.20;;;;;;;26.78;32.12;99545.16;5053876;28;20139;-60
2021/07/27 09:54:21;;;;;;;6.25;3.00;;;;;;;26.78;31.73;99542.44;5053747;28;20135;-60
2021/07/27 09:56:47;;;;;;;3.78;2.90;;;;;;;26.81;32.19;99532.81;5051532;28;20047;-58
2021/07/27 09:59:15;;;;;;;5.00;3.50;;;;;;;26.89;32.17;99535.41;5053598;28;20055;-61
2021/07/27 10:01:43;;;;;;;5.10;2.83;;;;;;;27.00;31.56;99537.66;5052205;28;20051;-59
2021/07/27 10:04:09;;;;;;;5.18;3.10;;;;;;;27.08;31.55;99534.00;5052255;28;20041;-60
2021/07/27 10:06:37;;;;;;;3.53;2.90;;;;;;;27.15;31.00;99531.53;5051739;28;20102;-59
2021/07/27 10:09:04;;;;;;;5.63;3.10;;;;;;;27.21;30.89;99527.44;5035619;28;20041;-60
2021/07/27 10:11:38;;;;;;;3.40;3.00;;;;;;;27.25;30.45;99536.47;5052045;28;20040;-61
2021/07/27 10:14:06;;;;;;;5.47;3.17;;;;;;;27.30;30.68;99530.78;5053435;28;20048;-60
2021/07/27 10:16:32;;;;;;;4.97;3.10;;;;;;;27.38;30.42;99520.88;5051536;28;20064;-63
2021/07/27 10:18:58;;;;;;;4.13;3.10;;;;;;;27.40;30.52;99526.78;5051562;28;20049;-61
2021/07/27 10:21:25;;;;;;;4.90;3.38;;;;;;;27.43;30.44;99523.38;5053191;28;20131;-62
2021/07/27 10:23:54;;;;;;;3.85;2.90;;;;;;;27.57;30.78;99518.31;5035247;28;20037;-62
2021/07/27 10:26:46;;;;;;;4.53;3.40;;;;;;;27.74;30.35;99521.88;5052800;28;20049;-61
2021/07/27 10:29:12;;;;;;;3.95;3.20;;;;;;;27.70;30.42;99521.75;5052727;28;20041;-61
2021/07/27 10:31:45;;;;;;;3.90;2.95;;;;;;;27.66;29.67;99520.88;5053011;28;20528;-61
2021/07/27 10:34:12;;;;;;;3.67;3.03;;;;;;;27.52;29.88;99515.84;5051514;28;20033;-61
2021/07/27 10:36:46;;;;;;;4.32;3.30;;;;;;;27.40;29.90;99519.41;5052931;28;20445;-59
2021/07/27 10:39:19;;;;;;;3.85;3.00;;;;;;;27.38;30.58;99507.28;5052805;28;20080;-59
2021/07/27 10:41:50;;;;;;;6.13;2.63;;;;;;;27.54;30.24;99504.63;5052388;28;20155;-59
2021/07/27 10:44:20;;;;;;;5.32;2.80;;;;;;;27.65;29.75;99513.88;5052094;28;20446;-62
2021/07/27 10:46:48;;;;;;;4.10;2.90;;;;;;;27.60;30.01;99508.66;5052486;28;20474;-60
2021/07/27 10:49:25;;;;;;;3.17;2.75;;;;;;;27.72;29.62;99505.88;5050990;28;20037;-59
2021/07/27 10:51:52;;;;;;;4.13;3.00;;;;;;;27.83;29.92;99485.19;5052370;28;20049;-60
2021/07/27 10:54:26;;;;;;;3.97;3.20;;;;;;;27.83;30.00;99489.84;5052706;28;20401;-60
2021/07/27 10:57:06;;;;;;;3.33;3.03;;;;;;;27.80;30.02;99483.16;5050819;28;20049;-60
2021/07/27 10:59:35;;;;;;;4.80;3.33;;;;;;;27.72;29.84;99478.63;5043028;28;20124;-59
2021/07/27 11:02:12;;;;;;;4.05;2.90;;;;;;;27.65;29.64;99478.47;5043515;28;20075;-59
2021/07/27 11:04:38;;;;;;;5.05;3.08;;;;;;;27.78;30.43;99484.63;5050824;28;20048;-58
2021/07/27 11:07:09;;;;;;;5.63;3.00;;;;;;;27.83;30.16;99477.00;5049453;28;20144;-59
2021/07/27 11:09:47;;;;;;;4.18;3.25;;;;;;;27.80;29.80;99471.47;5049398;28;20088;-61
2021/07/27 11:12:13;;;;;;;3.53;3.03;;;;;;;27.91;29.69;99469.78;5048383;28;20055;-60
2021/07/27 11:14:40;;;;;;;3.80;3.13;;;;;;;27.96;29.87;99466.81;5048861;28;20052;-60
2021/07/27 11:17:05;;;;;;;4.70;4.03;;;;;;;28.00;29.48;99470.44;5047504;28;20068;-60
2021/07/27 11:19:32;;;;;;;4.95;3.40;;;;;;;28.06;29.25;99469.03;5047568;28;20448;-60
2021/07/27 11:21:59;;;;;;;4.13;3.30;;;;;;;28.08;28.47;99464.00;5032244;28;20399;-60
2021/07/27 11:24:27;;;;;;;4.03;3.38;;;;;;;28.11;29.31;99462.50;5049036;28;20043;-63
2021/07/27 11:26:54;;;;;;;8.13;3.50;;;;;;;28.16;29.14;99447.81;5049413;28;20041;-60
2021/07/27 11:29:20;;;;;;;3.95;3.08;;;;;;;28.23;29.04;99445.25;5047792;28;20559;-59
2021/07/27 11:31:50;;;;;;;4.10;2.95;;;;;;;28.24;28.44;99455.81;5047150;28;20053;-59
2021/07/27 11:34:27;;;;;;;5.18;3.00;;;;;;;28.14;28.43;99450.88;5048038;28;20051;-59
2021/07/27 11:36:53;;;;;;;3.10;2.80;;;;;;;28.13;28.88;99452.03;5047688;28;20068;-60
2021/07/27 11:39:19;;;;;;;4.35;3.47;;;;;;;28.10;28.98;99451.97;5049488;28;20498;-60
2021/07/27 11:41:59;;;;;;;4.80;3.67;;;;;;;28.16;28.61;99448.59;5050580;28;20045;-57
2021/07/27 11:44:25;;;;;;;3.67;3.30;;;;;;;28.25;28.76;99454.66;4999591;28;20047;-59
2021/07/27 11:46:51;;;;;;;4.88;3.28;;;;;;;28.24;28.11;99439.47;5049893;28;20422;-59
2021/07/27 11:49:18;;;;;;;5.15;3.05;;;;;;;28.27;28.78;99436.03;5048915;28;20033;-59
2021/07/27 11:51:44;;;;;;;5.93;3.30;;;;;;;28.38;29.13;99440.91;4999383;28;20052;-60
2021/07/27 11:54:10;;;;;;;5.50;3.30;;;;;;;28.42;28.76;99439.88;5031832;28;20051;-61